createdAt,value
2022-08-22T00:01:03.444Z,99032.97
2022-08-22T00:02:48.497Z,99138.31
2022-08-22T00:02:54.722Z,99056.50
2022-08-22T00:03:02.492Z,99165.16
2022-08-22T00:03:02.740Z,99112.63
2022-08-22T00:03:02.741Z,99106.13
2022-08-22T00:03:04.029Z,99055.19
2022-08-22T00:03:15.813Z,99023.31
2022-08-22T00:04:49.279Z,99026.06
2022-08-22T00:06:31.302Z,99022.03
2022-08-22T00:08:13.678Z,99020.56
2022-08-22T00:09:55.519Z,99014.53
2022-08-22T00:11:27.580Z,99017.94
2022-08-22T00:13:02.228Z,99019.38
2022-08-22T00:14:50.860Z,99015.91
2022-08-22T00:16:40.626Z,99019.38
2022-08-22T00:18:23.058Z,99019.38
2022-08-22T00:20:02.086Z,99015.31
2022-08-22T00:22:03.459Z,99007.81
2022-08-22T00:23:46.531Z,99014.03
2022-08-22T00:25:29.617Z,99007.09
2022-08-22T00:27:04.441Z,99009.84
2022-08-22T00:28:39.060Z,99005.81
2022-08-22T00:30:13.403Z,99009.25
2022-08-22T00:31:56.634Z,99020.19
2022-08-22T00:33:47.022Z,99014.03
2022-08-22T00:35:25.532Z,99009.97
2022-08-22T00:37:00.315Z,99003.84
2022-08-22T00:38:35.962Z,99009.25
2022-08-22T00:40:26.915Z,99014.72
2022-08-22T00:42:04.713Z,99014.03
2022-08-22T00:43:40.131Z,99018.03
2022-08-22T00:45:30.999Z,99008.44
2022-08-22T00:47:03.109Z,99011.16
2022-08-22T00:48:54.781Z,99018.03
2022-08-22T00:50:55.594Z,99019.38
2022-08-22T00:52:50.720Z,99018.66
2022-08-22T00:54:31.890Z,99000.88
2022-08-22T00:56:13.252Z,99002.16
2022-08-22T00:57:45.311Z,99005.63
2022-08-22T00:59:36.688Z,99010.34
2022-08-22T01:01:11.657Z,98991.81
2022-08-22T01:03:02.224Z,99008.34
2022-08-22T01:04:40.665Z,99001.44
2022-08-22T01:06:24.180Z,99006.19
2022-08-22T01:08:09.580Z,98994.56
2022-08-22T01:09:41.639Z,99004.78
2022-08-22T01:11:32.620Z,99004.78
2022-08-22T01:13:10.903Z,98993.16
2022-08-22T01:14:42.942Z,98993.84
2022-08-22T01:16:27.574Z,98984.94
2022-08-22T01:18:18.192Z,98990.41
2022-08-22T01:19:53.432Z,98990.41
2022-08-22T01:21:28.896Z,98992.44
2022-08-22T01:23:09.967Z,98990.41
2022-08-22T01:25:04.785Z,98992.44
2022-08-22T01:26:46.576Z,98983.53
2022-08-22T01:28:22.885Z,98984.84
2022-08-22T01:30:16.562Z,98980.00
2022-08-22T01:32:04.141Z,98978.56
2022-08-22T01:33:45.566Z,99001.03
2022-08-22T01:35:17.661Z,98990.00
2022-08-22T01:36:53.161Z,98985.25
2022-08-22T01:38:46.288Z,98979.09
2022-08-22T01:40:53.461Z,98990.00
2022-08-22T01:42:39.293Z,98977.66
2022-08-22T01:44:18.053Z,98979.09
2022-08-22T01:45:56.306Z,98973.50
2022-08-22T01:47:37.562Z,98990.63
2022-08-22T01:49:22.021Z,98973.38
2022-08-22T01:50:56.129Z,98972.06
2022-08-22T01:52:34.616Z,98969.94
2022-08-22T01:54:12.746Z,98973.38
2022-08-22T01:56:03.989Z,98977.53
2022-08-22T01:57:50.033Z,98981.72
2022-08-22T01:59:34.469Z,98974.81
2022-08-22T02:01:25.433Z,98973.38
2022-08-22T02:02:57.902Z,98971.28
2022-08-22T02:04:44.712Z,98975.41
2022-08-22T02:06:22.153Z,98974.75
2022-08-22T02:07:54.574Z,98983.72
2022-08-22T02:09:36.322Z,98967.22
2022-08-22T02:11:31.473Z,98976.75
2022-08-22T02:13:17.614Z,98952.16
2022-08-22T02:14:59.489Z,98963.09
2022-08-22T02:16:39.198Z,98960.25
2022-08-22T02:18:14.493Z,98982.81
2022-08-22T02:19:57.319Z,98972.59
2022-08-22T02:21:39.523Z,98963.69
2022-08-22T02:23:26.680Z,98976.63
2022-08-22T02:25:12.370Z,98964.28
2022-08-22T02:27:06.821Z,98961.56
2022-08-22T02:28:57.979Z,98961.56
2022-08-22T02:31:02.712Z,98972.50
2022-08-22T02:32:55.478Z,98969.75
2022-08-22T02:34:39.759Z,98972.50
2022-08-22T02:36:21.246Z,98964.91
2022-08-22T02:38:06.117Z,98963.56
2022-08-22T02:39:38.344Z,98966.91
2022-08-22T02:41:22.530Z,98947.19
2022-08-22T02:43:07.738Z,98960.94
2022-08-22T02:44:42.200Z,98950.00
2022-08-22T02:46:22.769Z,98962.97
2022-08-22T02:47:56.936Z,98956.09
2022-08-22T02:49:48.036Z,98961.56
2022-08-22T02:51:29.961Z,98957.50
2022-08-22T02:53:09.346Z,98975.94
2022-08-22T02:54:47.693Z,98954.78
2022-08-22T02:56:24.538Z,98954.06
2022-08-22T02:58:12.003Z,98958.81
2022-08-22T03:00:04.727Z,98946.47
2022-08-22T03:01:40.919Z,98956.78
2022-08-22T03:03:20.185Z,98953.34
2022-08-22T03:04:55.459Z,98941.81
2022-08-22T03:06:33.385Z,98954.78
2022-08-22T03:08:10.161Z,98943.13
2022-08-22T03:09:57.430Z,98947.19
2022-08-22T03:11:32.165Z,98953.44
2022-08-22T03:13:10.023Z,98947.28
2022-08-22T03:15:01.210Z,98955.47
2022-08-22T03:16:45.784Z,98950.72
2022-08-22T03:18:43.402Z,98952.03
2022-08-22T03:20:23.264Z,98947.88
2022-08-22T03:22:02.561Z,98950.63
2022-08-22T03:23:43.216Z,98960.84
2022-08-22T03:25:18.225Z,98956.09
2022-08-22T03:26:53.498Z,98950.53
2022-08-22T03:28:32.788Z,98953.97
2022-08-22T03:30:04.993Z,98956.00
2022-08-22T03:31:37.166Z,98949.09
2022-08-22T03:33:12.510Z,98942.31
2022-08-22T03:34:55.597Z,98956.00
2022-08-22T03:36:29.760Z,98950.53
2022-08-22T03:38:10.980Z,98943.75
2022-08-22T03:39:49.022Z,98950.63
2022-08-22T03:41:44.798Z,98951.94
2022-08-22T03:43:35.363Z,98944.44
2022-08-22T03:45:07.614Z,98952.56
2022-08-22T03:46:59.236Z,98959.44
2022-08-22T03:48:54.582Z,98967.63
2022-08-22T03:50:35.818Z,98964.19
2022-08-22T03:52:08.150Z,98958.00
2022-08-22T03:53:46.033Z,98960.03
2022-08-22T03:55:29.429Z,98957.31
2022-08-22T03:57:07.406Z,98951.84
2022-08-22T03:59:09.935Z,98941.63
2022-08-22T04:01:00.482Z,98949.81
2022-08-22T04:02:48.140Z,98954.56
2022-08-22T04:04:23.374Z,98957.31
2022-08-22T04:05:57.000Z,98964.09
2022-08-22T04:07:47.442Z,98955.19
2022-08-22T04:09:39.193Z,98968.84
2022-08-22T04:11:28.943Z,98968.25
2022-08-22T04:13:16.169Z,98957.31
2022-08-22T04:15:04.418Z,98966.91
2022-08-22T04:16:45.734Z,98964.09
2022-08-22T04:18:36.539Z,98958.00
2022-08-22T04:20:16.702Z,98964.19
2022-08-22T04:22:04.122Z,98945.06
2022-08-22T04:23:42.278Z,98964.19
2022-08-22T04:25:35.262Z,98981.28
2022-08-22T04:27:16.830Z,98956.69
2022-08-22T04:28:53.476Z,98973.81
2022-08-22T04:30:32.885Z,98971.06
2022-08-22T04:32:17.218Z,98961.47
2022-08-22T04:33:53.038Z,98965.69
2022-08-22T04:35:52.273Z,98964.38
2022-08-22T04:37:34.155Z,98970.59
2022-08-22T04:39:18.467Z,98962.47
2022-08-22T04:40:54.404Z,98969.28
2022-08-22T04:42:38.200Z,98960.38
2022-08-22T04:44:15.015Z,98973.38
2022-08-22T04:46:05.849Z,98967.22
2022-08-22T04:47:41.457Z,98972.00
2022-08-22T04:49:22.879Z,98972.69
2022-08-22T04:51:06.922Z,98985.75
2022-08-22T04:52:58.051Z,98978.84
2022-08-22T04:54:48.834Z,98986.44
2022-08-22T04:56:30.059Z,98975.50
2022-08-22T04:58:24.760Z,98980.97
2022-08-22T05:00:02.442Z,98978.38
2022-08-22T05:01:57.231Z,98975.00
2022-08-22T05:03:29.938Z,98978.56
2022-08-22T05:05:04.354Z,98988.81
2022-08-22T05:06:39.903Z,98981.31
2022-08-22T05:08:17.383Z,98967.03
2022-08-22T05:10:10.519Z,98975.22
2022-08-22T05:11:47.982Z,98975.94
2022-08-22T05:13:24.727Z,98983.53
2022-08-22T05:14:59.276Z,98978.06
2022-08-22T05:16:37.050Z,98982.81
2022-08-22T05:18:12.404Z,98977.34
2022-08-22T05:19:50.629Z,98982.81
2022-08-22T05:21:27.002Z,98975.94
2022-08-22T05:23:02.077Z,98982.13
2022-08-22T05:24:43.558Z,98986.88
2022-08-22T05:26:16.266Z,98997.81
2022-08-22T05:27:51.257Z,99002.56
2022-08-22T05:29:30.433Z,98999.03
2022-08-22T05:31:09.096Z,98988.09
2022-08-22T05:32:41.208Z,99010.66
2022-08-22T05:34:14.683Z,99011.97
2022-08-22T05:35:53.417Z,98997.72
2022-08-22T05:37:38.466Z,99014.81
2022-08-22T05:39:14.579Z,99007.31
2022-08-22T05:40:51.523Z,99004.59
2022-08-22T05:42:28.325Z,99014.22
2022-08-22T05:44:02.168Z,99012.78
2022-08-22T05:45:35.348Z,99022.41
2022-08-22T05:47:20.226Z,99016.94
2022-08-22T05:49:00.949Z,99011.47
2022-08-22T05:50:33.275Z,99028.59
2022-08-22T05:52:24.925Z,99020.28
2022-08-22T05:54:03.901Z,99015.53
2022-08-22T05:55:48.692Z,99029.91
2022-08-22T05:57:20.739Z,99028.59
2022-08-22T05:59:02.832Z,99024.44
2022-08-22T06:00:42.374Z,99036.06
2022-08-22T06:02:17.281Z,99037.50
2022-08-22T06:04:07.902Z,99041.53
2022-08-22T06:05:41.387Z,99034.75
2022-08-22T06:07:19.499Z,99036.06
2022-08-22T06:08:58.523Z,99032.03
2022-08-22T06:10:36.410Z,99031.41
2022-08-22T06:12:18.198Z,99022.03
2022-08-22T06:14:03.010Z,99030.41
2022-08-22T06:15:45.271Z,99038.50
2022-08-22T06:17:22.491Z,99037.09
2022-08-22T06:18:56.126Z,99021.38
2022-08-22T06:20:48.519Z,99014.59
2022-08-22T06:22:23.224Z,99027.56
2022-08-22T06:24:05.591Z,99032.22
2022-08-22T06:25:39.711Z,99040.44
2022-08-22T06:27:14.331Z,99025.34
2022-08-22T06:28:54.755Z,99047.91
2022-08-22T06:30:28.655Z,99040.53
2022-08-22T06:32:02.585Z,99026.75
2022-08-22T06:33:45.436Z,99032.41
2022-08-22T06:35:24.317Z,99032.53
2022-08-22T06:36:57.290Z,99033.25
2022-08-22T06:38:33.875Z,99040.81
2022-08-22T06:40:07.882Z,99024.34
2022-08-22T06:41:54.883Z,99033.88
2022-08-22T06:43:27.205Z,99040.75
2022-08-22T06:45:14.954Z,99025.72
2022-08-22T06:46:48.261Z,99038.09
2022-08-22T06:48:21.889Z,99036.09
2022-08-22T06:49:57.151Z,99032.03
2022-08-22T06:51:29.795Z,99035.47
2022-08-22T06:53:02.198Z,99036.91
2022-08-22T06:54:36.461Z,99030.00
2022-08-22T06:56:10.069Z,99032.75
2022-08-22T06:57:43.750Z,99029.50
2022-08-22T06:59:18.753Z,99039.81
2022-08-22T07:01:11.260Z,99041.16
2022-08-22T07:02:46.764Z,99040.44
2022-08-22T07:04:22.216Z,99036.25
2022-08-22T07:05:55.641Z,99039.72
2022-08-22T07:07:28.024Z,99032.13
2022-08-22T07:09:00.303Z,99040.34
2022-08-22T07:10:44.286Z,99038.81
2022-08-22T07:12:19.447Z,99042.66
2022-08-22T07:13:54.183Z,99054.09
2022-08-22T07:15:35.546Z,99046.41
2022-08-22T07:17:09.513Z,99048.94
2022-08-22T07:18:49.052Z,99048.94
2022-08-22T07:20:23.015Z,99061.28
2022-08-22T07:21:56.639Z,99047.00
2022-08-22T07:23:36.914Z,99054.00
2022-08-22T07:25:14.629Z,99047.41
2022-08-22T07:26:58.714Z,99049.03
2022-08-22T07:28:36.918Z,99041.56
2022-08-22T07:30:09.993Z,99045.19
2022-08-22T07:31:55.203Z,99033.03
2022-08-22T07:33:36.148Z,99047.63
2022-08-22T07:35:17.950Z,99050.47
2022-08-22T07:36:54.285Z,99042.28
2022-08-22T07:38:43.815Z,99034.06
2022-08-22T07:40:19.160Z,99042.28
2022-08-22T07:42:04.305Z,99052.38
2022-08-22T07:43:48.151Z,99049.44
2022-08-22T07:45:36.078Z,99052.09
2022-08-22T07:47:12.553Z,99048.44
2022-08-22T07:49:08.005Z,99051.06
2022-08-22T07:50:53.775Z,99061.28
2022-08-22T07:52:29.563Z,99056.44
2022-08-22T07:54:03.798Z,99052.88
2022-08-22T07:55:41.069Z,99054.84
2022-08-22T07:57:28.543Z,99055.41
2022-08-22T07:59:13.214Z,99051.16
2022-08-22T08:00:46.069Z,99054.50
2022-08-22T08:02:18.860Z,99050.47
2022-08-22T08:03:53.930Z,99051.16
2022-08-22T08:05:27.778Z,99049.75
2022-08-22T08:07:01.358Z,99046.91
2022-08-22T08:08:35.786Z,99055.81
2022-08-22T08:10:16.353Z,99053.69
2022-08-22T08:11:51.447Z,99049.66
2022-08-22T08:13:26.419Z,99056.53
2022-08-22T08:14:58.840Z,99051.66
2022-08-22T08:16:36.766Z,99044.75
2022-08-22T08:18:11.692Z,99052.88
2022-08-22T08:19:45.244Z,99052.25
2022-08-22T08:21:30.619Z,99053.09
2022-08-22T08:23:04.653Z,99062.59
2022-08-22T08:24:43.216Z,99056.31
2022-08-22T08:26:21.037Z,99053.59
2022-08-22T08:28:12.271Z,99058.34
2022-08-22T08:29:57.162Z,99061.09
2022-08-22T08:31:35.482Z,99052.19
2022-08-22T08:33:24.770Z,99059.75
2022-08-22T08:34:59.457Z,99061.69
2022-08-22T08:36:38.022Z,99065.72
2022-08-22T08:38:16.206Z,99060.25
2022-08-22T08:39:53.684Z,99067.25
2022-08-22T08:41:41.441Z,99063.13
2022-08-22T08:43:29.867Z,99069.91
2022-08-22T08:45:09.638Z,99061.78
2022-08-22T08:47:00.734Z,99076.06
2022-08-22T08:48:45.151Z,99076.78
2022-08-22T08:50:35.680Z,99079.59
2022-08-22T08:52:17.340Z,99068.06
2022-08-22T08:53:51.083Z,99075.78
2022-08-22T08:55:23.896Z,99087.31
2022-08-22T08:56:59.720Z,99071.72
2022-08-22T08:58:32.891Z,99078.50
2022-08-22T09:00:05.709Z,99065.75
2022-08-22T09:01:48.257Z,99083.56
2022-08-22T09:03:32.755Z,99083.47
2022-08-22T09:05:05.578Z,99076.69
2022-08-22T09:06:52.703Z,99072.53
2022-08-22T09:08:27.698Z,99075.38
2022-08-22T09:10:06.311Z,99087.09
2022-08-22T09:12:03.592Z,99096.75
2022-08-22T09:13:54.760Z,99084.50
2022-08-22T09:15:39.225Z,99084.38
2022-08-22T09:17:30.423Z,99096.75
2022-08-22T09:19:14.848Z,99088.22
2022-08-22T09:21:05.925Z,99094.41
2022-08-22T09:22:50.907Z,99102.59
2022-08-22T09:24:23.280Z,99098.56
2022-08-22T09:26:01.678Z,99095.31
2022-08-22T09:28:00.661Z,99104.81
2022-08-22T09:29:54.374Z,99094.50
2022-08-22T09:31:47.921Z,99094.50
2022-08-22T09:33:28.710Z,99099.28
2022-08-22T09:35:13.536Z,99102.59
2022-08-22T09:37:04.688Z,99105.94
2022-08-22T09:38:57.348Z,99101.09
2022-08-22T09:40:37.049Z,99108.56
2022-08-22T09:42:09.233Z,99107.16
2022-08-22T09:43:58.071Z,99115.34
2022-08-22T09:45:42.942Z,99099.66
2022-08-22T09:47:17.773Z,99113.34
2022-08-22T09:49:00.060Z,99116.06
2022-08-22T09:50:44.979Z,99106.44
2022-08-22T09:52:34.161Z,99122.25
2022-08-22T09:54:11.510Z,99103.81
2022-08-22T09:55:50.208Z,99109.28
2022-08-22T09:57:36.054Z,99124.38
2022-08-22T09:59:18.459Z,99114.97
2022-08-22T10:00:57.097Z,99117.72
2022-08-22T10:02:50.332Z,99115.69
2022-08-22T10:04:42.092Z,99108.28
2022-08-22T10:06:18.359Z,99112.03
2022-08-22T10:08:11.446Z,99111.34
2022-08-22T10:09:54.848Z,99113.47
2022-08-22T10:11:31.862Z,99110.09
2022-08-22T10:13:18.778Z,99103.44
2022-08-22T10:15:11.411Z,99116.53
2022-08-22T10:16:56.358Z,99114.38
2022-08-22T10:18:28.462Z,99114.56
2022-08-22T10:20:07.336Z,99111.84
2022-08-22T10:22:00.471Z,99109.03
2022-08-22T10:23:39.830Z,99112.94
2022-08-22T10:25:13.129Z,99109.50
2022-08-22T10:26:53.881Z,99112.94
2022-08-22T10:28:39.566Z,99111.53
2022-08-22T10:30:15.613Z,99114.28
2022-08-22T10:32:06.027Z,99108.09
2022-08-22T10:33:49.488Z,99112.25
2022-08-22T10:35:34.026Z,99127.34
2022-08-22T10:37:18.122Z,99116.41
2022-08-22T10:38:58.365Z,99117.31
2022-08-22T10:40:55.658Z,99134.56
2022-08-22T10:42:35.458Z,99118.22
2022-08-22T10:44:23.048Z,99119.25
2022-08-22T10:46:01.902Z,99131.09
2022-08-22T10:47:42.004Z,99130.50
2022-08-22T10:49:34.490Z,99125.16
2022-08-22T10:51:20.069Z,99125.34
2022-08-22T10:53:15.951Z,99128.78
2022-08-22T10:54:51.462Z,99127.38
2022-08-22T10:56:34.356Z,99132.03
2022-08-22T10:58:11.204Z,99124.72
2022-08-22T10:59:51.190Z,99129.09
2022-08-22T11:01:37.903Z,99126.53
2022-08-22T11:03:21.449Z,99122.50
2022-08-22T11:05:18.165Z,99119.25
2022-08-22T11:06:57.481Z,99125.63
2022-08-22T11:09:08.258Z,99115.56
2022-08-22T11:10:40.451Z,99125.50
2022-08-22T11:12:35.223Z,99109.09
2022-08-22T11:14:07.968Z,99126.22
2022-08-22T11:15:52.435Z,99123.59
2022-08-22T11:17:54.474Z,99126.94
2022-08-22T11:19:32.691Z,99122.78
2022-08-22T11:21:07.962Z,99146.69
2022-08-22T11:22:47.492Z,99130.78
2022-08-22T11:24:35.301Z,99122.28
2022-08-22T11:26:38.341Z,99133.13
2022-08-22T11:28:32.706Z,99137.19
2022-08-22T11:30:05.574Z,99126.88
2022-08-22T11:31:56.425Z,99126.75
2022-08-22T11:33:53.203Z,99122.59
2022-08-22T11:35:28.473Z,99133.75
2022-08-22T11:37:19.039Z,99129.00
2022-08-22T11:39:17.940Z,99125.75
2022-08-22T11:40:54.218Z,99134.25
2022-08-22T11:42:55.799Z,99140.84
2022-08-22T11:44:59.409Z,99138.81
2022-08-22T11:46:35.403Z,99131.78
2022-08-22T11:48:16.823Z,99124.41
2022-08-22T11:49:49.181Z,99135.28
2022-08-22T11:51:26.828Z,99129.91
2022-08-22T11:53:07.971Z,99132.91
2022-08-22T11:54:45.847Z,99118.91
2022-08-22T11:56:27.778Z,99142.41
2022-08-22T11:58:03.216Z,99129.56
2022-08-22T11:59:58.718Z,99135.53
2022-08-22T12:01:49.960Z,99130.06
2022-08-22T12:03:41.789Z,99127.53
2022-08-22T12:05:24.678Z,99130.03
2022-08-22T12:07:13.002Z,99120.53
2022-08-22T12:08:49.585Z,99128.81
2022-08-22T12:10:25.652Z,99131.25
2022-08-22T12:12:17.150Z,99134.75
2022-08-22T12:14:06.149Z,99134.69
2022-08-22T12:15:46.149Z,99132.31
2022-08-22T12:17:54.943Z,99133.59
2022-08-22T12:19:34.910Z,99123.91
2022-08-22T12:21:36.735Z,99132.03
2022-08-22T12:23:13.638Z,99135.81
2022-08-22T12:24:45.822Z,99125.38
2022-08-22T12:26:24.818Z,99132.28
2022-08-22T12:28:04.311Z,99131.56
2022-08-22T12:29:48.112Z,99131.94
2022-08-22T12:31:33.127Z,99133.97
2022-08-22T12:33:09.891Z,99128.91
2022-08-22T12:34:45.737Z,99126.91
2022-08-22T12:36:36.843Z,99118.69
2022-08-22T12:38:28.787Z,99127.25
2022-08-22T12:40:26.378Z,99127.03
2022-08-22T12:42:18.019Z,99130.97
2022-08-22T12:43:53.075Z,99129.84
2022-08-22T12:45:25.492Z,99118.56
2022-08-22T12:47:00.414Z,99136.31
2022-08-22T12:48:52.410Z,99132.88
2022-08-22T12:50:24.571Z,99137.66
2022-08-22T12:52:04.436Z,99142.06
2022-08-22T12:53:54.102Z,99132.88
2022-08-22T12:55:41.353Z,99135.34
2022-08-22T12:57:24.697Z,99138.00
2022-08-22T12:59:12.509Z,99119.72
2022-08-22T13:00:47.385Z,99126.69
2022-08-22T13:02:25.315Z,99145.16
2022-08-22T13:03:59.783Z,99145.97
2022-08-22T13:05:34.351Z,99148.13
2022-08-22T13:07:30.570Z,99138.41
2022-08-22T13:09:32.713Z,99141.44
2022-08-22T13:11:15.126Z,99152.25
2022-08-22T13:12:56.863Z,99151.00
2022-08-22T13:14:30.449Z,99149.72
2022-08-22T13:16:06.486Z,99152.91
2022-08-22T13:17:42.767Z,99154.81
2022-08-22T13:19:27.110Z,99160.91
2022-08-22T13:21:02.261Z,99139.84
2022-08-22T13:22:35.495Z,99151.88
2022-08-22T13:24:11.727Z,99146.00
2022-08-22T13:25:52.816Z,99160.75
2022-08-22T13:27:32.438Z,99147.25
2022-08-22T13:29:25.014Z,99159.44
2022-08-22T13:30:59.592Z,99153.56
2022-08-22T13:32:33.762Z,99151.06
2022-08-22T13:34:07.397Z,99148.75
2022-08-22T13:35:52.031Z,99148.75
2022-08-22T13:37:28.725Z,99139.31
2022-08-22T13:39:13.465Z,99144.38
2022-08-22T13:40:49.273Z,99149.31
2022-08-22T13:42:30.374Z,99147.38
2022-08-22T13:44:06.376Z,99143.13
2022-08-22T13:45:39.448Z,99151.25
2022-08-22T13:47:14.966Z,99149.53
2022-08-22T13:48:49.856Z,99147.25
2022-08-22T13:50:25.400Z,99140.78
2022-08-22T13:52:14.458Z,99142.72
2022-08-22T13:54:18.612Z,99154.88
2022-08-22T13:55:57.055Z,99149.56
2022-08-22T13:57:34.867Z,99145.72
2022-08-22T13:59:25.305Z,99143.91
2022-08-22T14:01:25.564Z,99143.22
2022-08-22T14:03:13.052Z,99144.09
2022-08-22T14:04:47.344Z,99151.19
2022-08-22T14:06:37.202Z,99145.91
2022-08-22T14:08:18.575Z,99153.09
2022-08-22T14:09:56.410Z,99153.03
2022-08-22T14:11:35.367Z,99138.50
2022-08-22T14:13:25.951Z,99139.72
2022-08-22T14:15:04.670Z,99141.34
2022-08-22T14:16:46.241Z,99136.66
2022-08-22T14:18:30.335Z,99156.97
2022-08-22T14:20:10.983Z,99146.09
2022-08-22T14:22:04.096Z,99142.19
2022-08-22T14:23:36.318Z,99147.09
2022-08-22T14:25:21.343Z,99142.06
2022-08-22T14:27:05.529Z,99139.53
2022-08-22T14:28:38.847Z,99134.22
2022-08-22T14:30:14.806Z,99136.53
2022-08-22T14:32:08.699Z,99131.16
2022-08-22T14:33:46.637Z,99133.34
2022-08-22T14:35:35.122Z,99123.44
2022-08-22T14:37:15.459Z,99124.41
2022-08-22T14:38:56.421Z,99128.56
2022-08-22T14:40:30.193Z,99139.00
2022-08-22T14:42:10.864Z,99128.47
2022-08-22T14:43:58.742Z,99131.75
2022-08-22T14:45:34.543Z,99135.03
2022-08-22T14:47:32.658Z,99127.25
2022-08-22T14:49:16.355Z,99133.06
2022-08-22T14:50:58.618Z,99125.09
2022-08-22T14:52:33.872Z,99124.50
2022-08-22T14:54:14.040Z,99132.19
2022-08-22T14:56:11.736Z,99142.63
2022-08-22T14:57:48.296Z,99142.81
2022-08-22T14:59:27.789Z,99127.94
2022-08-22T15:01:12.454Z,99126.34
2022-08-22T15:02:47.475Z,99122.25
2022-08-22T15:04:23.242Z,99124.06
2022-08-22T15:05:57.414Z,99124.66
2022-08-22T15:07:35.084Z,99125.28
2022-08-22T15:09:08.609Z,99125.47
2022-08-22T15:10:42.329Z,99136.31
2022-08-22T15:12:25.871Z,99142.06
2022-08-22T15:14:01.874Z,99137.81
2022-08-22T15:15:49.451Z,99117.66
2022-08-22T15:17:34.368Z,99129.34
2022-08-22T15:19:21.916Z,99125.69
2022-08-22T15:21:24.220Z,99119.66
2022-08-22T15:22:59.305Z,99120.63
2022-08-22T15:24:33.107Z,99119.91
2022-08-22T15:26:13.317Z,99124.16
2022-08-22T15:27:56.858Z,99127.31
2022-08-22T15:29:31.416Z,99114.75
2022-08-22T15:31:05.994Z,99126.03
2022-08-22T15:32:41.709Z,99123.09
2022-08-22T15:34:19.730Z,99121.19
2022-08-22T15:35:55.082Z,99124.00
2022-08-22T15:37:29.311Z,99121.88
2022-08-22T15:39:23.422Z,99119.66
2022-08-22T15:40:56.765Z,99114.50
2022-08-22T15:42:31.770Z,99127.84
2022-08-22T15:44:21.448Z,99116.06
2022-08-22T15:46:18.324Z,99114.84
2022-08-22T15:47:52.698Z,99111.81
2022-08-22T15:49:27.845Z,99124.00
2022-08-22T15:51:01.678Z,99117.63
2022-08-22T15:52:59.802Z,99105.75
2022-08-22T15:54:46.962Z,99113.97
2022-08-22T15:56:25.927Z,99114.59
2022-08-22T15:58:04.693Z,99119.94
2022-08-22T15:59:53.694Z,99120.56
2022-08-22T16:01:27.093Z,99106.25
2022-08-22T16:03:07.866Z,99115.72
2022-08-22T16:04:47.327Z,99112.88
2022-08-22T16:06:39.406Z,99115.41
2022-08-22T16:08:23.650Z,99115.31
2022-08-22T16:09:58.975Z,99110.41
2022-08-22T16:11:33.594Z,99114.59
2022-08-22T16:13:13.797Z,99102.91
2022-08-22T16:14:47.342Z,99122.81
2022-08-22T16:16:25.874Z,99108.31
2022-08-22T16:17:58.040Z,99110.22
2022-08-22T16:19:34.769Z,99117.72
2022-08-22T16:21:11.156Z,99119.88
2022-08-22T16:22:56.482Z,99115.63
2022-08-22T16:24:33.805Z,99110.03
2022-08-22T16:26:06.538Z,99105.28
2022-08-22T16:27:50.935Z,99125.84
2022-08-22T16:29:41.429Z,99116.09
2022-08-22T16:31:20.136Z,99108.09
2022-08-22T16:32:54.382Z,99118.34
2022-08-22T16:34:36.508Z,99109.44
2022-08-22T16:36:36.506Z,99110.63
2022-08-22T16:38:08.690Z,99105.88
2022-08-22T16:39:41.099Z,99110.63
2022-08-22T16:41:30.209Z,99116.72
2022-08-22T16:43:15.391Z,99120.16
2022-08-22T16:45:17.698Z,99116.63
2022-08-22T16:46:52.107Z,99122.78
2022-08-22T16:48:54.847Z,99126.84
2022-08-22T16:50:30.217Z,99135.66
2022-08-22T16:52:26.957Z,99140.53
2022-08-22T16:54:08.782Z,99137.69
2022-08-22T16:55:43.426Z,99147.19
2022-08-22T16:57:23.873Z,99135.56
2022-08-22T16:59:19.761Z,99131.41
2022-08-22T17:01:31.471Z,99125.31
2022-08-22T17:03:22.367Z,99134.16
2022-08-22T17:05:00.392Z,99140.44
2022-08-22T17:06:35.857Z,99151.97
2022-08-22T17:08:20.875Z,99147.81
2022-08-22T17:09:59.635Z,99143.06
2022-08-22T17:11:38.144Z,99146.50
2022-08-22T17:13:19.474Z,99151.28
2022-08-22T17:15:13.608Z,99150.56
2022-08-22T17:17:04.778Z,99134.16
2022-08-22T17:18:42.826Z,99134.16
2022-08-22T17:20:17.725Z,99127.25
2022-08-22T17:22:01.520Z,99140.22
2022-08-22T17:23:34.833Z,99148.44
2022-08-22T17:25:10.083Z,99147.72
2022-08-22T17:26:48.398Z,99147.13
2022-08-22T17:28:39.561Z,99150.47
2022-08-22T17:30:20.190Z,99145.69
2022-08-22T17:32:03.520Z,99148.53
2022-08-22T17:33:52.319Z,99136.88
2022-08-22T17:35:43.030Z,99151.28
2022-08-22T17:37:30.324Z,99158.75
2022-08-22T17:39:21.695Z,99150.56
2022-08-22T17:40:59.699Z,99150.56
2022-08-22T17:42:47.489Z,99155.31
2022-08-22T17:44:22.604Z,99168.38
2022-08-22T17:46:01.717Z,99159.56
2022-08-22T17:47:42.343Z,99163.72
2022-08-22T17:49:17.094Z,99161.59
2022-08-22T17:50:55.093Z,99154.09
2022-08-22T17:52:36.376Z,99171.13
2022-08-22T17:54:18.209Z,99175.28
2022-08-22T17:55:57.150Z,99165.66
2022-08-22T17:57:32.417Z,99168.38
2022-08-22T17:59:11.602Z,99174.53
2022-08-22T18:01:11.379Z,99178.00
2022-08-22T18:02:59.285Z,99169.69
2022-08-22T18:04:33.555Z,99178.63
2022-08-22T18:06:09.310Z,99173.16
2022-08-22T18:07:41.398Z,99170.41
2022-08-22T18:09:36.839Z,99168.50
2022-08-22T18:11:11.832Z,99166.34
2022-08-22T18:12:56.014Z,99171.13
2022-08-22T18:14:45.070Z,99181.47
2022-08-22T18:16:32.579Z,99173.84
2022-08-22T18:18:07.870Z,99167.69
2022-08-22T18:19:45.430Z,99173.75
2022-08-22T18:21:26.623Z,99186.81
2022-08-22T18:23:01.944Z,99166.25
2022-08-22T18:24:46.257Z,99175.19
2022-08-22T18:26:27.941Z,99180.66
2022-08-22T18:28:03.721Z,99173.75
2022-08-22T18:29:50.647Z,99186.81
2022-08-22T18:31:35.214Z,99186.81
2022-08-22T18:33:31.003Z,99186.22
2022-08-22T18:35:07.982Z,99185.47
2022-08-22T18:36:46.631Z,99186.81
2022-08-22T18:38:29.574Z,99184.09
2022-08-22T18:40:13.852Z,99192.41
2022-08-22T18:41:52.507Z,99183.38
2022-08-22T18:43:27.388Z,99175.88
2022-08-22T18:44:59.478Z,99169.00
2022-08-22T18:46:38.732Z,99166.25
2022-08-22T18:48:45.990Z,99170.31
2022-08-22T18:50:32.456Z,99155.19
2022-08-22T18:52:16.820Z,99157.13
2022-08-22T18:54:04.648Z,99159.75
2022-08-22T18:55:39.499Z,99161.19
2022-08-22T18:57:30.945Z,99167.25
2022-08-22T18:59:15.587Z,99169.41
2022-08-22T19:01:10.015Z,99157.75
2022-08-22T19:03:00.970Z,99149.53
2022-08-22T19:04:53.771Z,99153.56
2022-08-22T19:06:44.465Z,99159.03
2022-08-22T19:08:16.602Z,99156.91
2022-08-22T19:10:07.797Z,99167.84
2022-08-22T19:11:46.386Z,99158.84
2022-08-22T19:13:22.261Z,99158.13
2022-08-22T19:15:12.848Z,99155.53
2022-08-22T19:16:45.321Z,99168.50
2022-08-22T19:18:34.566Z,99175.34
2022-08-22T19:20:25.454Z,99173.13
2022-08-22T19:22:21.866Z,99171.81
2022-08-22T19:23:55.148Z,99188.81
2022-08-22T19:25:27.847Z,99184.66
2022-08-22T19:27:18.085Z,99168.88
2022-08-22T19:28:55.660Z,99176.47
2022-08-22T19:30:34.194Z,99174.94
2022-08-22T19:32:12.949Z,99174.94
2022-08-22T19:33:48.584Z,99178.28
2022-08-22T19:35:25.448Z,99183.66
2022-08-22T19:37:30.811Z,99179.50
2022-08-22T19:39:08.797Z,99171.28
2022-08-22T19:40:44.391Z,99161.66
2022-08-22T19:42:19.586Z,99161.06
2022-08-22T19:43:52.247Z,99174.59
2022-08-22T19:45:27.232Z,99163.56
2022-08-22T19:46:59.361Z,99183.34
2022-08-22T19:48:44.657Z,99170.38